Kami-ii, Japan

1:47 AM JST on March 01, 2017 (GMT +0900)
国道123号線 | | Change Station

Elev 0 ft 36.48 °N, 140.38 °E | Updated 4 minutes ago

Clear
Clear
36.9 °F
Feels Like 37 °F
N
0.6
Wind Variable Wind from NNE
Gusts 1.2 mph

Today
High -- | Low -- °F
--% Chance of Precip.
Yesterday
High -- | Low -- °F
Precip. -- in
Pressure 30.21 in
Visibility 6.2 miles
Clouds Few 2000 ft
Windchill 37 °F
Dew Point 25 °F
Humidity 62%
Rainfall 0.00 in
Snow Depth Not available.
6:10 AM 5:33 PM
Waxing Crescent, 5% visible
METAR RJAH 281600Z 33005KT 9999 FEW020 M02/M04 Q1023
Pressure 30.21 in
Visibility 6.2 miles
Clouds Few 2000 ft
Windchill 37 °F
Dew Point 25 °F
Humidity 62%
Rainfall 0.00 in
Snow Depth Not available.
6:10 AM 5:33 PM
Waxing Crescent, 5% visible
METAR RJAH 281600Z 33005KT 9999 FEW020 M02/M04 Q1023

Get Your Daily Forecast Email!

Thanks for signing up!

Be on the lookout for a verification email in your inbox.

You'll start receiving the daily forecast at 8 AM.

×

10-Day Weather Forecast

No radar image for this location.
×

Almanac

Astronomy

Mar. 01, 2017 Rise Set
Actual Time
Civil Twilight
Nautical Twilight
Astronomical Twilight
Moon
Length of Visible Light
Length of Day
Tomorrow will be .
, % of the Moon is Illuminated

Today's Extremes

Country Highs Country Lows

Community

WunderPhotos

Upload Photos

1,962,540 photos uploaded!

WunderBlog® & News

Nearby

Air Quality

  Air Quality AQ Index Pollutant
Not available.

Snow Depth

Station Depth Elevation

Earthquake Activity

City Distance Mag. Time & Date
Minimum magnitude displayed is 2.5.

Coastal Water Temperatures

Place Temperature

Stations

Nearby Weather Stations

Station Location Temp. Windchill Dew Point Humidity Wind Precip. Elev Updated Type